createdAt,value
2023-03-15T00:02:04.249Z,1.30
2023-03-15T00:04:34.995Z,1.38
2023-03-15T00:07:01.985Z,1.80
2023-03-15T00:09:28.942Z,1.40
2023-03-15T00:11:55.941Z,1.42
2023-03-15T00:14:23.357Z,1.70
2023-03-15T00:16:50.462Z,1.85
2023-03-15T00:19:17.478Z,1.40
2023-03-15T00:21:44.580Z,1.55
2023-03-15T00:24:11.906Z,1.13
2023-03-15T00:26:39.437Z,1.17
2023-03-15T00:29:08.839Z,1.20
2023-03-15T00:31:36.226Z,1.17
2023-03-15T00:34:03.312Z,1.13
2023-03-15T00:36:32.258Z,1.17
2023-03-15T00:38:59.196Z,0.90
2023-03-15T00:41:26.198Z,0.93
2023-03-15T00:43:53.265Z,0.70
2023-03-15T00:46:20.741Z,0.90
2023-03-15T00:48:49.760Z,0.65
2023-03-15T00:51:23.191Z,0.82
2023-03-15T00:53:53.219Z,1.02
2023-03-15T00:56:27.180Z,1.55
2023-03-15T00:58:54.325Z,0.88
2023-03-15T01:01:29.530Z,1.00
2023-03-15T01:03:57.046Z,0.75
2023-03-15T01:06:28.064Z,0.80
2023-03-15T01:08:56.762Z,1.13
2023-03-15T01:11:27.731Z,1.30
2023-03-15T01:13:58.819Z,1.10
2023-03-15T01:16:26.722Z,1.77
2023-03-15T01:18:54.505Z,1.73
2023-03-15T01:21:23.737Z,1.67
2023-03-15T01:23:51.448Z,1.55
2023-03-15T01:26:22.103Z,1.50
2023-03-15T01:28:49.126Z,1.50
2023-03-15T01:31:27.208Z,1.80
2023-03-15T01:33:55.373Z,1.65
2023-03-15T01:36:22.764Z,1.63
2023-03-15T01:38:50.862Z,2.17
2023-03-15T01:41:23.203Z,1.73
2023-03-15T01:43:50.766Z,1.63
2023-03-15T01:46:35.161Z,2.03
2023-03-15T01:49:31.120Z,1.60
2023-03-15T01:52:07.088Z,2.65
2023-03-15T01:55:11.210Z,2.22
2023-03-15T01:57:47.961Z,2.75
2023-03-15T02:00:19.953Z,1.92
2023-03-15T02:02:58.425Z,2.67
2023-03-15T02:05:54.754Z,2.60
2023-03-15T02:08:52.101Z,2.13
2023-03-15T02:11:22.000Z,2.92
2023-03-15T02:13:50.154Z,3.08
2023-03-15T02:16:19.127Z,2.70
2023-03-15T02:18:52.908Z,3.38
2023-03-15T02:21:32.866Z,3.30
2023-03-15T02:24:29.525Z,2.90
2023-03-15T02:29:28.437Z,3.70
2023-03-15T02:31:56.444Z,4.88
2023-03-15T02:34:25.893Z,3.55
2023-03-15T02:36:54.130Z,3.40
2023-03-15T02:39:22.686Z,3.55
2023-03-15T02:41:55.949Z,3.78
2023-03-15T02:44:33.819Z,3.55
2023-03-15T02:47:07.197Z,3.25
2023-03-15T02:49:41.744Z,3.50
2023-03-15T02:52:09.795Z,4.03
2023-03-15T02:54:36.901Z,3.72
2023-03-15T02:57:04.754Z,3.70
2023-03-15T02:59:32.199Z,3.72
2023-03-15T03:01:59.202Z,4.63
2023-03-15T03:04:26.165Z,3.75
2023-03-15T03:06:53.304Z,3.70
2023-03-15T03:09:24.532Z,3.30
2023-03-15T03:11:52.375Z,3.17
2023-03-15T03:14:19.417Z,3.50
2023-03-15T03:16:46.461Z,3.75
2023-03-15T03:19:13.769Z,4.18
2023-03-15T03:21:43.401Z,3.90
2023-03-15T03:24:16.152Z,3.75
2023-03-15T03:26:46.244Z,2.95
2023-03-15T03:29:16.762Z,3.47
2023-03-15T03:31:46.096Z,3.53
2023-03-15T03:34:15.605Z,2.88
2023-03-15T03:36:43.849Z,2.60
2023-03-15T03:39:12.914Z,2.75
2023-03-15T03:41:40.310Z,3.00
2023-03-15T03:44:10.373Z,2.63
2023-03-15T03:46:38.671Z,2.72
2023-03-15T03:49:05.659Z,3.00
2023-03-15T03:51:34.217Z,2.45
2023-03-15T03:54:02.125Z,2.80
2023-03-15T03:56:29.290Z,3.03
2023-03-15T03:58:56.768Z,2.58
2023-03-15T04:01:31.335Z,2.67
2023-03-15T04:03:58.346Z,2.42
2023-03-15T04:06:25.507Z,3.70
2023-03-15T04:08:53.242Z,2.70
2023-03-15T04:11:29.449Z,2.88
2023-03-15T04:14:00.287Z,3.30
2023-03-15T04:16:27.878Z,2.72
2023-03-15T04:19:00.435Z,2.67
2023-03-15T04:21:32.124Z,2.20
2023-03-15T04:24:10.961Z,2.20
2023-03-15T04:27:05.545Z,2.53
2023-03-15T04:30:05.327Z,1.80
2023-03-15T04:32:58.842Z,2.85
2023-03-15T04:35:44.503Z,1.90
2023-03-15T04:38:26.826Z,2.28
2023-03-15T04:41:15.808Z,2.70
2023-03-15T04:44:06.474Z,2.63
2023-03-15T04:46:58.109Z,2.25
2023-03-15T04:49:42.418Z,2.40
2023-03-15T04:52:27.978Z,2.17
2023-03-15T04:55:18.016Z,2.13
2023-03-15T04:58:16.956Z,2.55
2023-03-15T05:00:47.148Z,2.70
2023-03-15T05:06:20.155Z,2.53
2023-03-15T05:09:18.038Z,2.28
2023-03-15T05:12:12.161Z,2.45
2023-03-15T05:14:56.818Z,2.53
2023-03-15T05:17:56.142Z,2.58
2023-03-15T05:20:43.475Z,2.65
2023-03-15T05:23:30.252Z,2.30
2023-03-15T05:26:09.719Z,2.47
2023-03-15T05:28:45.826Z,2.42
2023-03-15T05:31:37.094Z,2.53
2023-03-15T05:34:24.283Z,2.00
2023-03-15T05:37:10.380Z,2.22
2023-03-15T05:39:56.495Z,2.15
2023-03-15T05:42:41.976Z,1.90
2023-03-15T05:45:29.213Z,3.05
2023-03-15T05:48:22.594Z,2.55
2023-03-15T05:51:09.564Z,2.05
2023-03-15T05:53:59.489Z,2.50
2023-03-15T05:56:44.961Z,2.13
2023-03-15T05:59:19.306Z,2.67
2023-03-15T06:02:05.057Z,2.40
2023-03-15T06:04:41.329Z,2.67
2023-03-15T06:07:11.323Z,2.80
2023-03-15T06:09:38.695Z,2.67
2023-03-15T06:12:06.195Z,2.85
2023-03-15T06:14:33.300Z,3.80
2023-03-15T06:17:06.311Z,2.58
2023-03-15T06:19:33.311Z,2.78
2023-03-15T06:22:00.863Z,2.85
2023-03-15T06:24:34.331Z,2.67
2023-03-15T06:27:01.419Z,2.17
2023-03-15T06:29:28.753Z,2.67
2023-03-15T06:31:57.471Z,2.38
2023-03-15T06:34:25.618Z,1.85
2023-03-15T06:36:53.557Z,2.10
2023-03-15T06:39:20.641Z,2.30
2023-03-15T06:41:47.820Z,2.13
2023-03-15T06:44:20.598Z,1.65
2023-03-15T06:46:53.157Z,1.85
2023-03-15T06:49:20.537Z,1.77
2023-03-15T06:51:47.552Z,2.08
2023-03-15T06:54:14.538Z,2.28
2023-03-15T06:56:41.614Z,2.17
2023-03-15T06:59:08.975Z,2.42
2023-03-15T07:01:36.117Z,2.95
2023-03-15T07:04:03.627Z,2.65
2023-03-15T07:06:31.279Z,2.08
2023-03-15T07:08:58.740Z,2.30
2023-03-15T07:11:25.843Z,2.20
2023-03-15T07:13:52.982Z,2.25
2023-03-15T07:16:23.758Z,2.28
2023-03-15T07:18:52.933Z,2.08
2023-03-15T07:21:23.472Z,4.15
2023-03-15T07:23:50.889Z,2.50
2023-03-15T07:26:18.211Z,3.10
2023-03-15T07:28:45.621Z,2.40
2023-03-15T07:31:13.244Z,1.92
2023-03-15T07:33:40.889Z,2.88
2023-03-15T07:36:08.773Z,2.53
2023-03-15T07:38:36.603Z,3.55
2023-03-15T07:41:06.336Z,2.10
2023-03-15T07:43:34.787Z,1.50
2023-03-15T07:46:13.617Z,1.60
2023-03-15T07:48:41.453Z,3.15
2023-03-15T07:51:08.558Z,2.25
2023-03-15T07:53:35.746Z,1.38
2023-03-15T07:56:03.246Z,1.23
2023-03-15T07:58:30.332Z,1.98
2023-03-15T08:00:58.207Z,2.00
2023-03-15T08:03:27.005Z,1.42
2023-03-15T08:05:54.270Z,0.82
2023-03-15T08:08:21.564Z,0.93
2023-03-15T08:10:48.872Z,0.80
2023-03-15T08:13:15.984Z,1.10
2023-03-15T08:15:47.278Z,1.02
2023-03-15T08:18:15.182Z,0.60
2023-03-15T08:20:42.450Z,1.10
2023-03-15T08:23:09.762Z,0.82
2023-03-15T08:25:40.794Z,1.02
2023-03-15T08:28:08.458Z,1.00
2023-03-15T08:30:35.680Z,0.98
2023-03-15T08:33:03.877Z,1.63
2023-03-15T08:35:33.203Z,0.60
2023-03-15T08:38:02.912Z,0.73
2023-03-15T08:40:31.292Z,0.80
2023-03-15T08:42:58.761Z,0.90
2023-03-15T08:45:26.469Z,0.60
2023-03-15T08:48:01.130Z,0.82
2023-03-15T08:50:31.760Z,0.50
2023-03-15T08:52:59.243Z,0.63
2023-03-15T08:55:26.410Z,0.63
2023-03-15T08:57:54.073Z,0.70
2023-03-15T09:00:23.154Z,1.23
2023-03-15T09:02:54.437Z,0.70
2023-03-15T09:05:24.404Z,1.50
2023-03-15T09:07:53.281Z,0.88
2023-03-15T09:10:22.245Z,1.48
2023-03-15T09:12:53.811Z,0.60
2023-03-15T09:15:21.828Z,1.33
2023-03-15T09:17:51.973Z,0.57
2023-03-15T09:20:22.472Z,0.75
2023-03-15T09:22:55.512Z,0.70
2023-03-15T09:25:27.929Z,0.85
2023-03-15T09:27:55.483Z,0.40
2023-03-15T09:30:22.771Z,0.50
2023-03-15T09:32:51.814Z,0.70
2023-03-15T09:35:21.571Z,1.02
2023-03-15T09:37:51.070Z,1.60
2023-03-15T09:40:31.612Z,0.75
2023-03-15T09:43:49.008Z,0.90
2023-03-15T09:46:27.962Z,0.75
2023-03-15T09:49:15.383Z,0.95
2023-03-15T09:52:13.968Z,1.05
2023-03-15T09:55:00.040Z,0.80
2023-03-15T09:58:03.169Z,0.95
2023-03-15T10:00:53.118Z,0.68
2023-03-15T10:03:39.826Z,1.67
2023-03-15T10:06:29.223Z,0.47
2023-03-15T10:08:59.855Z,0.55
2023-03-15T10:11:48.485Z,1.02
2023-03-15T10:14:44.842Z,0.60
2023-03-15T10:17:40.184Z,0.57
2023-03-15T10:20:18.924Z,1.13
2023-03-15T10:23:10.440Z,0.80
2023-03-15T10:25:38.951Z,1.15
2023-03-15T10:28:23.744Z,0.75
2023-03-15T10:30:58.162Z,0.80
2023-03-15T10:33:39.626Z,0.30
2023-03-15T10:36:22.770Z,0.65
2023-03-15T10:38:51.176Z,0.68
2023-03-15T10:41:41.524Z,0.68
2023-03-15T10:44:26.959Z,0.75
2023-03-15T10:47:16.152Z,0.83
2023-03-15T10:49:49.842Z,0.77
2023-03-15T10:52:35.197Z,1.08
2023-03-15T10:55:19.147Z,0.63
2023-03-15T10:57:57.879Z,0.65
2023-03-15T11:00:34.621Z,0.60
2023-03-15T11:03:21.642Z,0.50
2023-03-15T11:05:53.315Z,0.93
2023-03-15T11:08:41.481Z,0.70
2023-03-15T11:11:09.643Z,0.57
2023-03-15T11:13:42.013Z,0.60
2023-03-15T11:16:15.265Z,0.40
2023-03-15T11:19:01.755Z,0.60
2023-03-15T11:21:33.785Z,0.80
2023-03-15T11:24:03.404Z,0.50
2023-03-15T11:26:36.732Z,0.50
2023-03-15T11:29:17.629Z,0.38
2023-03-15T11:31:45.458Z,0.30
2023-03-15T11:34:24.435Z,0.47
2023-03-15T11:37:08.108Z,0.65
2023-03-15T11:40:25.035Z,0.57
2023-03-15T11:43:00.228Z,0.57
2023-03-15T11:45:45.701Z,0.50
2023-03-15T11:48:51.480Z,0.90
2023-03-15T11:51:18.902Z,0.40
2023-03-15T11:54:17.246Z,0.68
2023-03-15T11:56:46.106Z,1.65
2023-03-15T11:59:17.656Z,0.50
2023-03-15T12:01:55.880Z,0.77
2023-03-15T12:04:39.479Z,0.45
2023-03-15T12:07:31.853Z,0.47
2023-03-15T12:10:04.694Z,0.43
2023-03-15T12:12:31.757Z,1.85
2023-03-15T12:15:25.092Z,0.50
2023-03-15T12:17:56.580Z,0.40
2023-03-15T12:20:39.795Z,0.63
2023-03-15T12:23:19.179Z,0.40
2023-03-15T12:26:06.150Z,0.80
2023-03-15T12:28:41.335Z,0.57
2023-03-15T12:31:13.846Z,0.38
2023-03-15T12:33:58.725Z,0.68
2023-03-15T12:36:40.419Z,1.35
2023-03-15T12:39:18.827Z,0.47
2023-03-15T12:41:50.059Z,0.60
2023-03-15T12:44:32.277Z,0.60
2023-03-15T12:47:06.148Z,0.40
2023-03-15T12:49:42.895Z,0.70
2023-03-15T12:52:13.809Z,0.73
2023-03-15T12:55:12.731Z,0.63
2023-03-15T12:57:49.712Z,0.45
2023-03-15T13:00:23.272Z,0.77
2023-03-15T13:03:06.551Z,0.60
2023-03-15T13:06:30.503Z,0.50
2023-03-15T13:09:09.532Z,0.80
2023-03-15T13:11:56.707Z,0.60
2023-03-15T13:14:44.605Z,0.82
2023-03-15T13:17:49.373Z,0.40
2023-03-15T13:21:06.517Z,0.90
2023-03-15T13:23:34.309Z,0.75
2023-03-15T13:26:33.423Z,0.38
2023-03-15T13:29:16.948Z,1.10
2023-03-15T13:31:47.667Z,0.82
2023-03-15T13:34:21.989Z,0.60
2023-03-15T13:36:59.679Z,0.50
2023-03-15T13:39:32.895Z,0.40
2023-03-15T13:42:16.078Z,0.55
2023-03-15T13:44:43.096Z,0.55
2023-03-15T13:47:22.016Z,0.50
2023-03-15T13:49:52.830Z,0.70
2023-03-15T13:52:20.128Z,0.50
2023-03-15T13:54:47.140Z,0.50
2023-03-15T13:57:19.064Z,0.85
2023-03-15T13:59:56.218Z,0.50
2023-03-15T14:02:33.779Z,1.75
2023-03-15T14:05:07.826Z,0.40
2023-03-15T14:07:45.548Z,0.70
2023-03-15T14:10:23.557Z,0.60
2023-03-15T14:12:52.733Z,0.60
2023-03-15T14:15:27.615Z,0.50
2023-03-15T14:18:18.344Z,0.50
2023-03-15T14:20:53.664Z,0.60
2023-03-15T14:23:25.259Z,0.40
2023-03-15T14:25:56.076Z,0.50
2023-03-15T14:28:24.759Z,0.55
2023-03-15T14:30:57.777Z,0.68
2023-03-15T14:33:27.508Z,0.50
2023-03-15T14:36:02.133Z,0.82
2023-03-15T14:38:38.927Z,0.50
2023-03-15T14:41:33.684Z,1.08
2023-03-15T14:44:03.008Z,1.48
2023-03-15T14:46:33.177Z,0.57
2023-03-15T14:49:01.010Z,1.02
2023-03-15T14:51:29.573Z,0.80
2023-03-15T14:53:58.995Z,0.77
2023-03-15T14:56:26.492Z,0.60
2023-03-15T14:58:56.124Z,0.50
2023-03-15T15:01:26.506Z,0.80
2023-03-15T15:03:58.749Z,0.70
2023-03-15T15:06:27.828Z,0.65
2023-03-15T15:08:58.861Z,0.43
2023-03-15T15:11:26.928Z,1.40
2023-03-15T15:13:53.976Z,1.98
2023-03-15T15:16:21.031Z,0.60
2023-03-15T15:18:48.269Z,0.73
2023-03-15T15:21:26.031Z,0.70
2023-03-15T15:23:58.816Z,0.75
2023-03-15T15:26:29.449Z,0.65
2023-03-15T15:28:57.911Z,1.45
2023-03-15T15:31:27.097Z,0.45
2023-03-15T15:33:55.990Z,1.23
2023-03-15T15:36:25.142Z,0.88
2023-03-15T15:38:52.404Z,0.60
2023-03-15T15:41:27.590Z,0.65
2023-03-15T15:43:54.797Z,0.70
2023-03-15T15:46:23.852Z,0.80
2023-03-15T15:48:52.352Z,0.57
2023-03-15T15:51:32.048Z,1.98
2023-03-15T15:54:01.314Z,1.35
2023-03-15T15:56:40.153Z,0.73
2023-03-15T15:59:13.710Z,0.55
2023-03-15T16:01:56.756Z,0.88
2023-03-15T16:07:03.623Z,1.38
2023-03-15T16:09:36.095Z,0.75
2023-03-15T16:12:11.576Z,0.55
2023-03-15T16:14:38.550Z,1.02
2023-03-15T16:17:27.094Z,0.50
2023-03-15T16:19:54.855Z,0.75
2023-03-15T16:22:24.105Z,0.70
2023-03-15T16:24:55.231Z,0.82
2023-03-15T16:27:26.904Z,3.00
2023-03-15T16:29:55.818Z,1.63
2023-03-15T16:32:37.213Z,0.50
2023-03-15T16:35:15.742Z,0.70
2023-03-15T16:37:43.985Z,1.02
2023-03-15T16:40:21.861Z,0.70
2023-03-15T16:42:50.559Z,0.98
2023-03-15T16:45:17.880Z,0.95
2023-03-15T16:47:45.521Z,0.52
2023-03-15T16:50:12.785Z,1.20
2023-03-15T16:52:42.260Z,1.52
2023-03-15T16:55:20.052Z,2.00
2023-03-15T16:57:47.011Z,1.77
2023-03-15T17:00:17.229Z,2.38
2023-03-15T17:02:50.513Z,1.80
2023-03-15T17:05:20.169Z,1.20
2023-03-15T17:07:53.092Z,0.88
2023-03-15T17:10:30.949Z,1.00
2023-03-15T17:13:01.344Z,1.13
2023-03-15T17:15:29.835Z,0.93
2023-03-15T17:17:57.744Z,0.70
2023-03-15T17:20:29.389Z,0.65
2023-03-15T17:23:02.654Z,0.70
2023-03-15T17:25:31.135Z,0.50
2023-03-15T17:27:58.342Z,0.85
2023-03-15T17:30:32.615Z,0.50
2023-03-15T17:33:00.251Z,0.77
2023-03-15T17:35:49.984Z,1.17
2023-03-15T17:38:24.520Z,0.77
2023-03-15T17:40:51.725Z,0.82
2023-03-15T17:43:18.884Z,1.00
2023-03-15T17:45:46.270Z,0.60
2023-03-15T17:48:13.610Z,1.58
2023-03-15T17:50:43.506Z,0.52
2023-03-15T17:53:19.258Z,0.88
2023-03-15T17:55:48.204Z,0.40
2023-03-15T17:58:22.392Z,0.47
2023-03-15T18:00:54.914Z,0.90
2023-03-15T18:03:23.732Z,0.30
2023-03-15T18:05:51.322Z,0.70
2023-03-15T18:08:21.521Z,0.60
2023-03-15T18:10:50.409Z,0.40
2023-03-15T18:13:21.492Z,0.50
2023-03-15T18:15:50.150Z,0.68
2023-03-15T18:18:17.773Z,0.35
2023-03-15T18:20:45.904Z,0.40
2023-03-15T18:23:17.495Z,1.42
2023-03-15T18:25:44.658Z,0.40
2023-03-15T18:28:12.317Z,0.40
2023-03-15T18:30:39.313Z,0.65
2023-03-15T18:33:06.611Z,0.63
2023-03-15T18:35:35.977Z,0.40
2023-03-15T18:38:04.516Z,0.50
2023-03-15T18:40:33.383Z,0.32
2023-03-15T18:43:01.443Z,0.73
2023-03-15T18:45:31.905Z,0.32
2023-03-15T18:48:02.183Z,0.50
2023-03-15T18:50:30.131Z,0.68
2023-03-15T18:52:57.840Z,0.32
2023-03-15T18:55:24.866Z,0.30
2023-03-15T18:57:53.726Z,0.60
2023-03-15T19:00:32.555Z,0.43
2023-03-15T19:03:01.855Z,0.52
2023-03-15T19:05:30.976Z,0.47
2023-03-15T19:07:58.211Z,0.40
2023-03-15T19:10:26.220Z,0.55
2023-03-15T19:12:53.927Z,0.47
2023-03-15T19:15:22.947Z,0.60
2023-03-15T19:17:54.439Z,0.65
2023-03-15T19:20:23.658Z,0.77
2023-03-15T19:22:52.435Z,0.70
2023-03-15T19:25:20.595Z,0.75
2023-03-15T19:27:47.774Z,0.80
2023-03-15T19:30:22.052Z,0.95
2023-03-15T19:32:50.737Z,0.75
2023-03-15T19:35:20.098Z,1.20
2023-03-15T19:37:48.791Z,1.58
2023-03-15T19:40:17.518Z,2.28
2023-03-15T19:42:45.435Z,1.80
2023-03-15T19:45:13.057Z,0.85
2023-03-15T19:47:40.779Z,0.70
2023-03-15T19:50:13.218Z,0.80
2023-03-15T19:52:45.997Z,0.68
2023-03-15T19:55:19.607Z,1.20
2023-03-15T19:57:47.101Z,2.00
2023-03-15T20:00:16.982Z,1.98
2023-03-15T20:02:45.260Z,2.03
2023-03-15T20:05:15.743Z,2.33
2023-03-15T20:07:43.571Z,1.95
2023-03-15T20:10:12.896Z,1.48
2023-03-15T20:12:42.541Z,1.83
2023-03-15T20:15:16.777Z,2.03
2023-03-15T20:17:44.701Z,1.63
2023-03-15T20:20:13.843Z,1.52
2023-03-15T20:22:43.653Z,1.67
2023-03-15T20:25:19.102Z,1.83
2023-03-15T20:27:46.582Z,1.70
2023-03-15T20:30:16.489Z,2.17
2023-03-15T20:32:45.102Z,1.95
2023-03-15T20:35:12.394Z,1.90
2023-03-15T20:37:41.539Z,1.40
2023-03-15T20:40:12.880Z,2.60
2023-03-15T20:42:41.113Z,2.85
2023-03-15T20:45:09.711Z,2.15
2023-03-15T20:47:37.958Z,2.50
2023-03-15T20:50:07.594Z,2.10
2023-03-15T20:52:34.704Z,1.50
2023-03-15T20:55:03.571Z,3.15
2023-03-15T20:57:31.312Z,1.20
2023-03-15T20:59:58.496Z,1.73
2023-03-15T21:02:25.754Z,1.38
2023-03-15T21:04:52.976Z,1.27
2023-03-15T21:07:20.191Z,1.40
2023-03-15T21:09:47.430Z,0.88
2023-03-15T21:12:14.635Z,1.33
2023-03-15T21:14:41.688Z,1.90
2023-03-15T21:17:08.914Z,2.88
2023-03-15T21:19:36.091Z,3.05
2023-03-15T21:22:03.798Z,3.22
2023-03-15T21:24:40.640Z,2.85
2023-03-15T21:27:12.528Z,2.60
2023-03-15T21:29:40.438Z,3.75
2023-03-15T21:32:08.059Z,2.83
2023-03-15T21:34:35.817Z,2.78
2023-03-15T21:37:03.036Z,3.10
2023-03-15T21:39:30.272Z,2.00
2023-03-15T21:41:57.488Z,2.00
2023-03-15T21:44:24.662Z,2.30
2023-03-15T21:46:53.364Z,2.78
2023-03-15T21:49:20.483Z,2.10
2023-03-15T21:51:47.481Z,2.22
2023-03-15T21:54:14.570Z,2.58
2023-03-15T21:56:41.620Z,1.98
2023-03-15T21:59:09.141Z,2.13
2023-03-15T22:01:36.768Z,2.55
2023-03-15T22:04:03.788Z,2.47
2023-03-15T22:06:30.812Z,2.20
2023-03-15T22:08:57.905Z,2.40
2023-03-15T22:11:24.970Z,2.15
2023-03-15T22:13:52.779Z,2.53
2023-03-15T22:16:19.817Z,2.20
2023-03-15T22:18:46.747Z,2.28
2023-03-15T22:21:13.857Z,1.90
2023-03-15T22:23:40.852Z,2.63
2023-03-15T22:26:07.859Z,2.60
2023-03-15T22:28:35.370Z,2.42
2023-03-15T22:31:02.423Z,2.50
2023-03-15T22:33:29.417Z,2.50
2023-03-15T22:35:58.563Z,2.55
2023-03-15T22:38:26.389Z,1.85
2023-03-15T22:41:02.765Z,2.20
2023-03-15T22:43:29.725Z,3.30
2023-03-15T22:45:56.795Z,2.28
2023-03-15T22:48:23.997Z,2.10
2023-03-15T22:51:02.670Z,2.17
2023-03-15T22:53:30.105Z,2.15
2023-03-15T22:55:57.903Z,1.85
2023-03-15T22:58:25.475Z,1.90
2023-03-15T23:00:52.469Z,2.08
2023-03-15T23:03:19.545Z,1.80
2023-03-15T23:05:46.994Z,1.80
2023-03-15T23:08:14.013Z,2.15
2023-03-15T23:10:42.298Z,2.53
2023-03-15T23:13:09.641Z,3.17
2023-03-15T23:15:36.862Z,2.38
2023-03-15T23:18:05.337Z,1.88
2023-03-15T23:20:32.660Z,2.30
2023-03-15T23:22:59.604Z,2.40
2023-03-15T23:25:29.914Z,2.35
2023-03-15T23:27:57.253Z,2.05
2023-03-15T23:30:24.388Z,1.90
2023-03-15T23:32:57.645Z,2.10
2023-03-15T23:35:25.854Z,2.33
2023-03-15T23:37:53.209Z,2.38
2023-03-15T23:40:21.104Z,1.92
2023-03-15T23:42:52.456Z,1.95
2023-03-15T23:45:19.562Z,2.30
2023-03-15T23:47:46.584Z,1.80
2023-03-15T23:50:13.696Z,1.90
2023-03-15T23:52:41.315Z,1.85
2023-03-15T23:55:08.931Z,2.42
2023-03-15T23:57:35.899Z,2.33
